Time;durP1;ratioP1;P1;durP2;ratioP2;P2;SDS_P1;SDS_P2;PMS_P1;PMS_P2;Temp;Humidity;BMP_temperature;BMP_pressure;BME280_temperature;BME280_humidity;BME280_pressure;Samples;Min_cycle;Max_cycle;Signal;HPM_P1;HPM_P2
2021/12/30 00:01:33;;;;;;;;;8.33;8.00;;;;;;;;5030618;28;45830;-73
2021/12/30 00:03:59;;;;;;;;;7.00;6.00;;;;;;;;5039847;28;45344;-73
2021/12/30 00:06:24;;;;;;;;;2.50;2.50;;;;;;;;5033170;28;45458;-71
2021/12/30 00:08:51;;;;;;;;;3.00;1.50;;;;;;;;5018081;28;45501;-71
2021/12/30 00:11:17;;;;;;;;;2.00;0.00;;;;;;;;5031083;28;45554;-72
2021/12/30 00:13:45;;;;;;;;;0.00;0.00;;;;;;;;5032482;28;45907;-72
2021/12/30 00:16:11;;;;;;;;;0.00;0.00;;;;;;;;5034100;28;45793;-71
2021/12/30 00:18:36;;;;;;;;;0.00;0.00;;;;;;;;5030654;28;45831;-71
2021/12/30 00:21:01;;;;;;;;;2.25;1.00;;;;;;;;5030670;28;45414;-71
2021/12/30 00:23:27;;;;;;;;;0.00;0.00;;;;;;;;5033286;28;45651;-72
2021/12/30 00:25:52;;;;;;;;;0.67;0.00;;;;;;;;5039258;28;45371;-71
2021/12/30 00:28:18;;;;;;;;;0.00;0.00;;;;;;;;5032428;28;45653;-71
2021/12/30 00:30:45;;;;;;;;;0.00;0.00;;;;;;;;5034310;28;45478;-71
2021/12/30 00:33:10;;;;;;;;;2.00;0.00;;;;;;;;5029577;28;45581;-71
2021/12/30 00:35:36;;;;;;;;;1.00;0.00;;;;;;;;5029743;28;46031;-71
2021/12/30 00:38:02;;;;;;;;;0.25;0.25;;;;;;;;5033498;28;45469;-71
2021/12/30 00:40:27;;;;;;;;;0.00;0.00;;;;;;;;5031691;28;45501;-71
2021/12/30 00:42:53;;;;;;;;;1.00;0.00;;;;;;;;5041143;28;45349;-71
2021/12/30 00:45:18;;;;;;;;;0.00;0.00;;;;;;;;5045519;28;46359;-71
2021/12/30 00:47:43;;;;;;;;;0.50;0.50;;;;;;;;5024349;28;45324;-71
2021/12/30 00:50:09;;;;;;;;;0.25;0.25;;;;;;;;5040459;28;45396;-71
2021/12/30 00:52:34;;;;;;;;;0.00;0.00;;;;;;;;5038937;28;45449;-71
2021/12/30 00:55:00;;;;;;;;;4.50;0.75;;;;;;;;5038784;28;45589;-71
2021/12/30 00:57:25;;;;;;;;;2.00;0.00;;;;;;;;5041482;28;45768;-71
2021/12/30 00:59:50;;;;;;;;;0.00;0.00;;;;;;;;5043007;28;45409;-71
2021/12/30 01:02:15;;;;;;;;;0.00;0.00;;;;;;;;5027384;28;45453;-71
2021/12/30 01:04:40;;;;;;;;;1.00;0.00;;;;;;;;5035116;28;45624;-71
2021/12/30 01:07:06;;;;;;;;;0.00;0.00;;;;;;;;5048031;28;46786;-71
2021/12/30 01:09:31;;;;;;;;;0.00;0.00;;;;;;;;5040870;28;45398;-71
2021/12/30 01:11:58;;;;;;;;;0.50;0.00;;;;;;;;5046310;28;45478;-71
2021/12/30 01:14:27;;;;;;;;;2.75;1.00;;;;;;;;5045168;28;45899;-71
2021/12/30 01:16:56;;;;;;;;;0.00;0.00;;;;;;;;5034378;28;45375;-71
2021/12/30 01:22:05;;;;;;;;;0.00;0.00;;;;;;;;5030857;28;45480;-71
2021/12/30 01:24:30;;;;;;;;;0.00;0.00;;;;;;;;5034502;28;46318;-71
2021/12/30 01:26:56;;;;;;;;;0.00;0.00;;;;;;;;5034321;28;45550;-71
2021/12/30 01:29:24;;;;;;;;;1.00;1.00;;;;;;;;5033820;28;45421;-71
2021/12/30 01:31:49;;;;;;;;;0.00;0.00;;;;;;;;5034242;28;45442;-71
2021/12/30 01:34:14;;;;;;;;;0.00;0.00;;;;;;;;5033799;28;46724;-71
2021/12/30 01:36:39;;;;;;;;;3.00;0.00;;;;;;;;5033848;28;45347;-72
2021/12/30 01:39:05;;;;;;;;;0.00;0.00;;;;;;;;5033371;28;45475;-72
2021/12/30 01:41:30;;;;;;;;;3.00;0.00;;;;;;;;5018236;28;46515;-72
2021/12/30 01:43:55;;;;;;;;;0.00;0.00;;;;;;;;5033860;28;46128;-72
2021/12/30 01:46:20;;;;;;;;;0.00;0.00;;;;;;;;5034157;28;45359;-72
2021/12/30 01:48:45;;;;;;;;;1.00;1.00;;;;;;;;5035085;28;45286;-72
2021/12/30 01:51:11;;;;;;;;;0.00;0.00;;;;;;;;5034208;28;45656;-71
2021/12/30 01:53:37;;;;;;;;;1.00;1.00;;;;;;;;5033648;28;45602;-72
2021/12/30 01:56:03;;;;;;;;;0.00;0.00;;;;;;;;5033421;28;45364;-72
2021/12/30 01:58:29;;;;;;;;;1.00;1.00;;;;;;;;5033979;28;45442;-72
2021/12/30 02:00:54;;;;;;;;;3.00;0.33;;;;;;;;5020992;28;45557;-72
2021/12/30 02:03:20;;;;;;;;;0.00;0.00;;;;;;;;5033736;28;45386;-72
2021/12/30 02:05:45;;;;;;;;;0.25;0.25;;;;;;;;5034415;28;45537;-72
2021/12/30 02:08:13;;;;;;;;;1.75;1.00;;;;;;;;5034084;28;45335;-72
2021/12/30 02:10:40;;;;;;;;;1.00;1.00;;;;;;;;5013286;28;45712;-72
2021/12/30 02:13:06;;;;;;;;;0.00;0.00;;;;;;;;5032652;28;45663;-72
2021/12/30 02:15:31;;;;;;;;;1.00;1.00;;;;;;;;5034079;28;45339;-72
2021/12/30 02:17:58;;;;;;;;;1.33;1.00;;;;;;;;5033728;28;45561;-72
2021/12/30 02:20:37;;;;;;;;;0.50;0.25;;;;;;;;5033608;28;45801;-72
2021/12/30 02:23:03;;;;;;;;;1.75;1.00;;;;;;;;5033130;28;46546;-72
2021/12/30 02:25:28;;;;;;;;;1.00;0.00;;;;;;;;5032772;28;45321;-72
2021/12/30 02:27:53;;;;;;;;;0.33;0.33;;;;;;;;5015955;28;45476;-72
2021/12/30 02:30:19;;;;;;;;;0.00;0.00;;;;;;;;5033640;28;45432;-72
2021/12/30 02:32:44;;;;;;;;;0.00;0.00;;;;;;;;5032620;28;45315;-72
2021/12/30 02:35:09;;;;;;;;;1.00;0.00;;;;;;;;5033844;28;45975;-72
2021/12/30 02:37:35;;;;;;;;;1.00;1.00;;;;;;;;5033485;28;45482;-72
2021/12/30 02:40:00;;;;;;;;;0.00;0.00;;;;;;;;5032955;28;45427;-72
2021/12/30 02:42:25;;;;;;;;;0.00;0.00;;;;;;;;5019388;28;47448;-72
2021/12/30 02:44:51;;;;;;;;;0.75;0.75;;;;;;;;5032206;28;45641;-72
2021/12/30 02:47:16;;;;;;;;;1.00;1.00;;;;;;;;5033079;28;45406;-72
2021/12/30 02:49:42;;;;;;;;;0.00;0.00;;;;;;;;5035568;28;45619;-72
2021/12/30 02:52:07;;;;;;;;;0.00;0.00;;;;;;;;5036871;28;45471;-72
2021/12/30 02:54:33;;;;;;;;;1.00;0.00;;;;;;;;5037396;28;45466;-72
2021/12/30 02:56:58;;;;;;;;;0.00;0.00;;;;;;;;5036385;28;45675;-72
2021/12/30 02:59:23;;;;;;;;;0.00;0.00;;;;;;;;5036296;28;45386;-71
2021/12/30 03:01:49;;;;;;;;;0.67;0.00;;;;;;;;5035373;28;45542;-72
2021/12/30 03:04:14;;;;;;;;;0.00;0.00;;;;;;;;5035952;28;45507;-72
2021/12/30 03:06:40;;;;;;;;;1.00;1.00;;;;;;;;5037000;28;45437;-72
2021/12/30 03:09:05;;;;;;;;;0.00;0.00;;;;;;;;5036419;28;45386;-72
2021/12/30 03:11:30;;;;;;;;;3.00;0.00;;;;;;;;5035779;28;45483;-72
2021/12/30 03:13:55;;;;;;;;;0.00;0.00;;;;;;;;5036501;28;45411;-72
2021/12/30 03:16:23;;;;;;;;;0.00;0.00;;;;;;;;5036029;28;45524;-72
2021/12/30 03:18:49;;;;;;;;;1.00;1.00;;;;;;;;5035664;28;45348;-72
2021/12/30 03:21:15;;;;;;;;;0.25;0.25;;;;;;;;5036379;28;45567;-72
2021/12/30 03:23:40;;;;;;;;;2.25;0.00;;;;;;;;5036340;28;45407;-72
2021/12/30 03:26:06;;;;;;;;;0.00;0.00;;;;;;;;5036136;28;45464;-72
2021/12/30 03:28:32;;;;;;;;;0.75;0.75;;;;;;;;5035643;28;45565;-72
2021/12/30 03:30:59;;;;;;;;;0.00;0.00;;;;;;;;5036275;28;45476;-72
2021/12/30 03:33:24;;;;;;;;;0.00;0.00;;;;;;;;5035395;28;45339;-72
2021/12/30 03:35:49;;;;;;;;;0.00;0.00;;;;;;;;5035681;28;45376;-72
2021/12/30 03:38:15;;;;;;;;;0.00;0.00;;;;;;;;5036086;28;45484;-72
2021/12/30 03:40:40;;;;;;;;;0.33;0.00;;;;;;;;5017678;28;46178;-72
2021/12/30 03:43:05;;;;;;;;;0.00;0.00;;;;;;;;5035201;28;45390;-72
2021/12/30 03:45:30;;;;;;;;;0.00;0.00;;;;;;;;5036290;28;45503;-72
2021/12/30 03:47:56;;;;;;;;;0.00;0.00;;;;;;;;5035863;28;45411;-72
2021/12/30 03:50:23;;;;;;;;;1.00;0.00;;;;;;;;5036230;28;45481;-72
2021/12/30 03:52:50;;;;;;;;;0.00;0.00;;;;;;;;5035209;28;45793;-72
2021/12/30 03:55:16;;;;;;;;;0.00;0.00;;;;;;;;5034972;28;45308;-72
2021/12/30 03:57:43;;;;;;;;;0.00;0.00;;;;;;;;5036506;28;45428;-72
2021/12/30 04:00:10;;;;;;;;;0.00;0.00;;;;;;;;5034574;28;45679;-72
2021/12/30 04:02:35;;;;;;;;;0.00;0.00;;;;;;;;5035459;28;45640;-72
2021/12/30 04:05:00;;;;;;;;;0.00;0.00;;;;;;;;5035144;28;45417;-72
2021/12/30 04:07:25;;;;;;;;;0.00;0.00;;;;;;;;5035189;28;45319;-72
2021/12/30 04:09:50;;;;;;;;;0.00;0.00;;;;;;;;5035756;28;45484;-72
2021/12/30 04:12:18;;;;;;;;;1.00;0.00;;;;;;;;5035022;28;45428;-72
2021/12/30 04:14:43;;;;;;;;;0.00;0.00;;;;;;;;5034826;28;45407;-72
2021/12/30 04:17:08;;;;;;;;;0.00;0.00;;;;;;;;5035918;28;45309;-72
2021/12/30 04:19:34;;;;;;;;;0.00;0.00;;;;;;;;5035327;28;46447;-72
2021/12/30 04:21:59;;;;;;;;;0.00;0.00;;;;;;;;5036327;28;45272;-72
2021/12/30 04:24:24;;;;;;;;;0.00;0.00;;;;;;;;5034370;28;45275;-72
2021/12/30 04:26:50;;;;;;;;;0.00;0.00;;;;;;;;5035162;28;45592;-72
2021/12/30 04:29:16;;;;;;;;;0.00;0.00;;;;;;;;5034803;28;46945;-72
2021/12/30 04:31:41;;;;;;;;;1.00;0.00;;;;;;;;5034004;28;45756;-72
2021/12/30 04:34:06;;;;;;;;;2.00;0.00;;;;;;;;5035572;28;45901;-72
2021/12/30 04:36:32;;;;;;;;;0.00;0.00;;;;;;;;5034576;28;45505;-72
2021/12/30 04:38:57;;;;;;;;;0.33;0.33;;;;;;;;5034490;28;45389;-72
2021/12/30 04:41:22;;;;;;;;;1.00;1.00;;;;;;;;5034606;28;45453;-72
2021/12/30 04:43:47;;;;;;;;;0.00;0.00;;;;;;;;5034910;28;45302;-72
2021/12/30 04:46:13;;;;;;;;;0.00;0.00;;;;;;;;5034436;28;45410;-72
2021/12/30 04:48:38;;;;;;;;;0.00;0.00;;;;;;;;5034786;28;46259;-72
2021/12/30 04:51:04;;;;;;;;;0.00;0.00;;;;;;;;5035301;28;45323;-72
2021/12/30 04:53:29;;;;;;;;;0.00;0.00;;;;;;;;5033500;28;45553;-72
2021/12/30 04:55:54;;;;;;;;;2.00;1.00;;;;;;;;5035186;28;45314;-72
2021/12/30 04:58:20;;;;;;;;;1.00;1.00;;;;;;;;5035047;28;45666;-72
2021/12/30 05:00:45;;;;;;;;;1.25;0.00;;;;;;;;5035398;28;45355;-72
2021/12/30 05:03:14;;;;;;;;;0.50;0.50;;;;;;;;5033211;28;45399;-72
2021/12/30 05:05:41;;;;;;;;;0.00;0.00;;;;;;;;5034704;28;45364;-72
2021/12/30 05:08:07;;;;;;;;;0.00;0.00;;;;;;;;5033990;28;45597;-72
2021/12/30 05:10:33;;;;;;;;;0.50;0.50;;;;;;;;5034658;28;45538;-72
2021/12/30 05:12:59;;;;;;;;;2.00;0.00;;;;;;;;5035064;28;45414;-72
2021/12/30 05:15:24;;;;;;;;;4.00;1.25;;;;;;;;5034853;28;45625;-72
2021/12/30 05:17:49;;;;;;;;;1.00;1.00;;;;;;;;5034676;28;46575;-72
2021/12/30 05:20:15;;;;;;;;;2.25;1.00;;;;;;;;5034005;28;45617;-72
2021/12/30 05:22:40;;;;;;;;;2.00;1.67;;;;;;;;5034029;28;45408;-72
2021/12/30 05:25:06;;;;;;;;;1.50;0.50;;;;;;;;5034451;28;45530;-72
2021/12/30 05:27:31;;;;;;;;;0.50;0.50;;;;;;;;5034329;28;46589;-72
2021/12/30 05:29:56;;;;;;;;;1.67;0.67;;;;;;;;5034513;28;45283;-72
2021/12/30 05:32:21;;;;;;;;;1.00;1.00;;;;;;;;5033660;28;45624;-72
2021/12/30 05:34:47;;;;;;;;;2.50;0.50;;;;;;;;5034629;28;45295;-72
2021/12/30 05:37:12;;;;;;;;;1.00;0.00;;;;;;;;5033755;28;47807;-72
2021/12/30 05:39:41;;;;;;;;;2.33;0.00;;;;;;;;5033731;28;45501;-72
2021/12/30 05:42:06;;;;;;;;;0.25;0.25;;;;;;;;5034153;28;45646;-72
2021/12/30 05:44:31;;;;;;;;;1.67;1.00;;;;;;;;5020362;28;45557;-72
2021/12/30 05:46:56;;;;;;;;;0.00;0.00;;;;;;;;5034449;28;45522;-72
2021/12/30 05:49:22;;;;;;;;;0.33;0.33;;;;;;;;5034642;28;45438;-72
2021/12/30 05:51:47;;;;;;;;;0.33;0.00;;;;;;;;5034164;28;45434;-72
2021/12/30 05:54:12;;;;;;;;;2.00;0.00;;;;;;;;5033068;28;45386;-72
2021/12/30 05:56:37;;;;;;;;;0.33;0.00;;;;;;;;5033405;28;45441;-72
2021/12/30 05:59:02;;;;;;;;;1.33;0.00;;;;;;;;5033740;28;45476;-72
2021/12/30 06:01:27;;;;;;;;;2.00;2.00;;;;;;;;5033232;28;45323;-72
2021/12/30 06:03:53;;;;;;;;;1.67;1.00;;;;;;;;5032919;28;45709;-72
2021/12/30 06:06:18;;;;;;;;;1.33;1.00;;;;;;;;5033258;28;45489;-72
2021/12/30 06:08:43;;;;;;;;;2.00;2.00;;;;;;;;5032046;28;45911;-72
2021/12/30 06:11:08;;;;;;;;;2.00;1.00;;;;;;;;5032733;28;45438;-72
2021/12/30 06:13:33;;;;;;;;;0.67;0.67;;;;;;;;5034185;28;45468;-72
2021/12/30 06:15:59;;;;;;;;;1.00;1.00;;;;;;;;5020375;28;47049;-72
2021/12/30 06:18:24;;;;;;;;;2.00;1.00;;;;;;;;5033220;28;45365;-72
2021/12/30 06:20:49;;;;;;;;;3.00;1.67;;;;;;;;5033273;28;45345;-72
2021/12/30 06:23:14;;;;;;;;;1.67;1.00;;;;;;;;5032365;28;45442;-72
2021/12/30 06:25:39;;;;;;;;;2.00;1.00;;;;;;;;5036835;28;46417;-72
2021/12/30 06:28:05;;;;;;;;;1.00;1.00;;;;;;;;5036341;28;45541;-72
2021/12/30 06:30:30;;;;;;;;;3.67;1.00;;;;;;;;5037693;28;45739;-72
2021/12/30 06:32:55;;;;;;;;;2.00;2.00;;;;;;;;5036253;28;45461;-72
2021/12/30 06:35:20;;;;;;;;;4.00;1.00;;;;;;;;5035578;28;45453;-72
2021/12/30 06:37:46;;;;;;;;;1.00;1.00;;;;;;;;5023030;28;45552;-72
2021/12/30 06:40:12;;;;;;;;;1.67;1.00;;;;;;;;5037184;28;45283;-71
2021/12/30 06:42:38;;;;;;;;;4.00;1.00;;;;;;;;5035800;28;45383;-72
2021/12/30 06:45:03;;;;;;;;;3.75;2.75;;;;;;;;5036805;28;46261;-72
2021/12/30 06:47:29;;;;;;;;;1.75;1.00;;;;;;;;5036325;28;45475;-72
2021/12/30 06:50:00;;;;;;;;;3.00;1.00;;;;;;;;5036868;28;45467;-72
2021/12/30 06:52:25;;;;;;;;;4.00;1.75;;;;;;;;5036436;28;45466;-72
2021/12/30 06:54:50;;;;;;;;;4.00;2.67;;;;;;;;5036744;28;45428;-72
2021/12/30 06:57:16;;;;;;;;;5.00;2.00;;;;;;;;5036650;28;45443;-72
2021/12/30 06:59:41;;;;;;;;;2.00;1.00;;;;;;;;5036599;28;45514;-72
2021/12/30 07:02:06;;;;;;;;;5.25;3.00;;;;;;;;5023147;28;45705;-71
2021/12/30 07:04:32;;;;;;;;;5.00;2.00;;;;;;;;5036146;28;46445;-72
2021/12/30 07:06:57;;;;;;;;;5.00;1.75;;;;;;;;5037314;28;45383;-72
2021/12/30 07:09:22;;;;;;;;;4.00;3.00;;;;;;;;5036168;28;45447;-72
2021/12/30 07:11:51;;;;;;;;;4.67;3.00;;;;;;;;5036326;28;45538;-72
2021/12/30 07:14:18;;;;;;;;;3.25;1.00;;;;;;;;5011253;28;46543;-71
2021/12/30 07:16:43;;;;;;;;;5.50;3.00;;;;;;;;5035445;28;45359;-72
2021/12/30 07:19:08;;;;;;;;;3.33;2.00;;;;;;;;5021261;28;45477;-71
2021/12/30 07:21:33;;;;;;;;;1.75;1.50;;;;;;;;5036592;28;45465;-72
2021/12/30 07:23:58;;;;;;;;;2.33;2.00;;;;;;;;5035218;28;45432;-72
2021/12/30 07:26:24;;;;;;;;;7.00;1.67;;;;;;;;5035681;28;45456;-72
2021/12/30 07:28:49;;;;;;;;;1.00;1.00;;;;;;;;5035773;28;45398;-72
2021/12/30 07:31:14;;;;;;;;;3.00;3.00;;;;;;;;5035434;28;45438;-71
2021/12/30 07:33:39;;;;;;;;;5.67;2.33;;;;;;;;5036076;28;46683;-71
2021/12/30 07:36:04;;;;;;;;;5.67;2.67;;;;;;;;5034272;28;45413;-72
2021/12/30 07:38:30;;;;;;;;;4.00;2.50;;;;;;;;5035935;28;45469;-72
2021/12/30 07:40:55;;;;;;;;;4.67;2.00;;;;;;;;5035944;28;45510;-72
2021/12/30 07:43:20;;;;;;;;;2.50;2.50;;;;;;;;5034758;28;45809;-72
2021/12/30 07:45:45;;;;;;;;;3.33;3.00;;;;;;;;5035609;28;45590;-72
2021/12/30 07:48:10;;;;;;;;;7.67;4.00;;;;;;;;5035451;28;45488;-72
2021/12/30 07:50:36;;;;;;;;;3.33;3.00;;;;;;;;5035498;28;45453;-72
2021/12/30 07:53:01;;;;;;;;;3.00;2.00;;;;;;;;5034689;28;45435;-72
2021/12/30 07:55:26;;;;;;;;;3.50;2.50;;;;;;;;5034857;28;45391;-72
2021/12/30 07:57:55;;;;;;;;;6.00;3.00;;;;;;;;5036960;28;45225;-72
2021/12/30 08:00:20;;;;;;;;;5.00;2.00;;;;;;;;5034616;28;45601;-72
2021/12/30 08:02:45;;;;;;;;;5.50;3.50;;;;;;;;5034508;28;45409;-73
2021/12/30 08:05:16;;;;;;;;;5.33;4.33;;;;;;;;5017484;28;45729;-71
2021/12/30 08:07:42;;;;;;;;;5.00;3.00;;;;;;;;5017972;28;45433;-72
2021/12/30 08:10:14;;;;;;;;;3.25;3.00;;;;;;;;5034126;28;45386;-72
2021/12/30 08:12:39;;;;;;;;;5.50;3.50;;;;;;;;5034510;28;46679;-72
2021/12/30 08:15:06;;;;;;;;;4.25;3.50;;;;;;;;5036331;28;45585;-72
2021/12/30 08:17:31;;;;;;;;;5.00;2.25;;;;;;;;5015890;28;45567;-72
2021/12/30 08:19:56;;;;;;;;;6.00;5.00;;;;;;;;5032502;28;45445;-72
2021/12/30 08:22:21;;;;;;;;;4.00;3.00;;;;;;;;5032440;28;46287;-72
2021/12/30 08:24:46;;;;;;;;;9.00;3.00;;;;;;;;5033454;28;45543;-72
2021/12/30 08:27:13;;;;;;;;;2.00;2.00;;;;;;;;5032263;28;46744;-72
2021/12/30 08:29:38;;;;;;;;;4.50;4.00;;;;;;;;5032175;28;45775;-72
2021/12/30 08:32:06;;;;;;;;;4.75;2.00;;;;;;;;5032850;28;46192;-72
2021/12/30 08:34:31;;;;;;;;;6.00;3.25;;;;;;;;5018575;28;45928;-73
2021/12/30 08:36:57;;;;;;;;;6.50;4.00;;;;;;;;5031051;28;45482;-72
2021/12/30 08:39:22;;;;;;;;;3.33;2.33;;;;;;;;5016976;28;45371;-72
2021/12/30 08:41:47;;;;;;;;;4.00;4.00;;;;;;;;5032096;28;45619;-72
2021/12/30 08:44:12;;;;;;;;;5.00;3.00;;;;;;;;5016029;28;45337;-72
2021/12/30 08:46:37;;;;;;;;;6.33;4.00;;;;;;;;5033249;28;45540;-72
2021/12/30 08:49:03;;;;;;;;;3.67;3.00;;;;;;;;5035427;28;45413;-72
2021/12/30 08:51:29;;;;;;;;;3.75;2.00;;;;;;;;5033334;28;46378;-72
2021/12/30 08:53:55;;;;;;;;;3.00;3.00;;;;;;;;5033262;28;45359;-72
2021/12/30 08:56:21;;;;;;;;;6.00;4.25;;;;;;;;5014128;28;45546;-72
2021/12/30 08:58:46;;;;;;;;;4.67;3.00;;;;;;;;5031466;28;45574;-73
2021/12/30 09:01:11;;;;;;;;;6.33;3.00;;;;;;;;5033042;28;45431;-72
2021/12/30 09:03:37;;;;;;;;;4.75;2.50;;;;;;;;5033278;28;45348;-73
2021/12/30 09:06:02;;;;;;;;;7.00;5.50;;;;;;;;5032174;28;45371;-73
2021/12/30 09:08:27;;;;;;;;;9.00;2.00;;;;;;;;5018246;28;45603;-72
2021/12/30 09:10:53;;;;;;;;;6.33;3.00;;;;;;;;5035345;28;45530;-73
2021/12/30 09:13:21;;;;;;;;;4.00;3.00;;;;;;;;5032684;28;45477;-72
2021/12/30 09:15:46;;;;;;;;;5.00;3.00;;;;;;;;5016349;28;45332;-72
2021/12/30 09:18:12;;;;;;;;;5.00;3.00;;;;;;;;5031949;28;45502;-72
2021/12/30 09:20:38;;;;;;;;;3.25;2.50;;;;;;;;5032792;28;45484;-72
2021/12/30 09:23:04;;;;;;;;;7.00;4.75;;;;;;;;5033408;28;45647;-73
2021/12/30 09:25:30;;;;;;;;;3.00;3.00;;;;;;;;5032765;28;45405;-73
2021/12/30 09:27:56;;;;;;;;;5.50;3.75;;;;;;;;5033650;28;45497;-72
2021/12/30 09:30:22;;;;;;;;;4.50;4.50;;;;;;;;5030089;28;47342;-71
2021/12/30 09:32:48;;;;;;;;;5.75;4.50;;;;;;;;5030382;28;45859;-71
2021/12/30 09:35:13;;;;;;;;;4.00;4.00;;;;;;;;5015651;28;45481;-70
2021/12/30 09:37:39;;;;;;;;;6.00;4.00;;;;;;;;5015184;28;45291;-71
2021/12/30 09:40:08;;;;;;;;;3.75;2.75;;;;;;;;5033066;28;45317;-71
2021/12/30 09:42:34;;;;;;;;;5.00;5.00;;;;;;;;5033154;28;45638;-71
2021/12/30 09:44:59;;;;;;;;;7.50;3.00;;;;;;;;5032927;28;45615;-71
2021/12/30 09:47:24;;;;;;;;;8.00;3.00;;;;;;;;5031213;28;45534;-71
2021/12/30 09:49:52;;;;;;;;;2.67;2.67;;;;;;;;5033163;28;46828;-71
2021/12/30 09:52:18;;;;;;;;;5.50;4.50;;;;;;;;5033570;28;45427;-71
2021/12/30 09:54:43;;;;;;;;;4.00;3.75;;;;;;;;5034264;28;45287;-71
2021/12/30 09:57:08;;;;;;;;;9.00;3.25;;;;;;;;5032446;28;45573;-71
2021/12/30 09:59:34;;;;;;;;;5.33;4.00;;;;;;;;5032187;28;46789;-71
2021/12/30 10:01:59;;;;;;;;;4.75;2.50;;;;;;;;5032750;28;45354;-71
2021/12/30 10:04:29;;;;;;;;;3.67;2.00;;;;;;;;5033537;28;45438;-71
2021/12/30 10:06:54;;;;;;;;;6.50;4.00;;;;;;;;5034576;28;45304;-71
2021/12/30 10:09:25;;;;;;;;;8.00;4.00;;;;;;;;5032251;28;45505;-71
2021/12/30 10:11:56;;;;;;;;;2.00;1.50;;;;;;;;5033044;28;45766;-71
2021/12/30 10:14:26;;;;;;;;;6.25;4.25;;;;;;;;5032885;28;45473;-71
2021/12/30 10:16:51;;;;;;;;;3.50;3.25;;;;;;;;5033219;28;45453;-71
2021/12/30 10:19:25;;;;;;;;;4.25;3.50;;;;;;;;5033920;28;46646;-71
2021/12/30 10:21:50;;;;;;;;;7.25;3.75;;;;;;;;5034257;28;45256;-71
2021/12/30 10:24:16;;;;;;;;;5.00;4.00;;;;;;;;5033842;28;46920;-71
2021/12/30 10:26:48;;;;;;;;;4.00;3.50;;;;;;;;5032657;28;45591;-71
2021/12/30 10:29:13;;;;;;;;;8.75;5.25;;;;;;;;5031467;28;45620;-71
2021/12/30 10:31:40;;;;;;;;;5.00;3.67;;;;;;;;5033106;28;45379;-71
2021/12/30 10:34:06;;;;;;;;;4.75;3.00;;;;;;;;5033178;28;45506;-71
2021/12/30 10:36:42;;;;;;;;;6.25;4.25;;;;;;;;5033692;28;45622;-70
2021/12/30 10:39:13;;;;;;;;;7.75;5.25;;;;;;;;5032101;28;45760;-71
2021/12/30 10:41:38;;;;;;;;;6.25;3.75;;;;;;;;5008811;28;46162;-71
2021/12/30 10:44:05;;;;;;;;;8.00;5.00;;;;;;;;5037113;28;45503;-71
2021/12/30 10:46:30;;;;;;;;;9.00;4.50;;;;;;;;5022684;28;45449;-70
2021/12/30 10:48:59;;;;;;;;;7.00;2.50;;;;;;;;5035330;28;46384;-70
2021/12/30 10:51:24;;;;;;;;;7.00;4.00;;;;;;;;5031939;28;45743;-70
2021/12/30 10:53:53;;;;;;;;;5.00;3.33;;;;;;;;5033264;28;45491;-71
2021/12/30 10:56:22;;;;;;;;;5.00;3.50;;;;;;;;5032010;28;45403;-71
2021/12/30 10:58:48;;;;;;;;;4.00;4.00;;;;;;;;5029580;28;46663;-70
2021/12/30 11:01:16;;;;;;;;;7.00;3.00;;;;;;;;5027513;28;45497;-71
2021/12/30 11:03:50;;;;;;;;;4.75;3.50;;;;;;;;5033164;28;45355;-71
2021/12/30 11:06:18;;;;;;;;;7.00;3.00;;;;;;;;5020125;28;45547;-70
2021/12/30 11:08:46;;;;;;;;;6.00;3.50;;;;;;;;5034204;28;45438;-71
2021/12/30 11:11:25;;;;;;;;;3.50;3.00;;;;;;;;5032635;28;45631;-71
2021/12/30 11:13:57;;;;;;;;;6.50;4.00;;;;;;;;5032867;28;45362;-70
2021/12/30 11:16:22;;;;;;;;;7.25;4.00;;;;;;;;5033587;28;45672;-70
2021/12/30 11:18:47;;;;;;;;;3.00;1.33;;;;;;;;5036136;28;45435;-70
2021/12/30 11:21:32;;;;;;;;;5.67;4.00;;;;;;;;5041549;28;45518;-70
2021/12/30 11:23:58;;;;;;;;;3.25;3.25;;;;;;;;5043357;28;45453;-70
2021/12/30 11:26:23;;;;;;;;;5.25;4.25;;;;;;;;5043155;28;45448;-71
2021/12/30 11:28:48;;;;;;;;;4.00;2.33;;;;;;;;5039013;28;45411;-70
2021/12/30 11:31:13;;;;;;;;;6.00;4.33;;;;;;;;5021777;28;45436;-70
2021/12/30 11:33:39;;;;;;;;;6.00;4.00;;;;;;;;5040251;28;45478;-70
2021/12/30 11:36:04;;;;;;;;;4.00;3.00;;;;;;;;5041001;28;45545;-70
2021/12/30 11:38:29;;;;;;;;;5.25;3.00;;;;;;;;5036956;28;45378;-70
2021/12/30 11:40:54;;;;;;;;;5.67;3.33;;;;;;;;5034283;28;45602;-70
2021/12/30 11:43:21;;;;;;;;;6.00;3.00;;;;;;;;5025091;28;45656;-70
2021/12/30 11:45:46;;;;;;;;;6.50;2.25;;;;;;;;5041465;28;45692;-70
2021/12/30 11:48:25;;;;;;;;;6.00;4.00;;;;;;;;5041361;28;45513;-70
2021/12/30 11:51:01;;;;;;;;;5.00;3.00;;;;;;;;5035857;28;45534;-70
2021/12/30 11:53:26;;;;;;;;;2.50;2.50;;;;;;;;5037598;28;45501;-70
2021/12/30 11:55:53;;;;;;;;;3.00;2.00;;;;;;;;5036643;28;45359;-70
2021/12/30 11:58:27;;;;;;;;;3.25;2.75;;;;;;;;5036734;28;46441;-70
2021/12/30 12:00:52;;;;;;;;;3.50;2.00;;;;;;;;5035688;28;45359;-71
2021/12/30 12:03:31;;;;;;;;;3.00;2.00;;;;;;;;5021348;28;45480;-70
2021/12/30 12:05:57;;;;;;;;;3.00;2.75;;;;;;;;5034746;28;45485;-70
2021/12/30 12:08:26;;;;;;;;;1.75;1.75;;;;;;;;5033199;28;46352;-70
2021/12/30 12:11:24;;;;;;;;;4.50;1.75;;;;;;;;5034413;28;46741;-71
2021/12/30 12:13:50;;;;;;;;;5.25;3.00;;;;;;;;4974910;28;45452;-70
2021/12/30 12:16:17;;;;;;;;;4.25;2.25;;;;;;;;4974597;28;45592;-71
2021/12/30 12:19:00;;;;;;;;;5.25;2.00;;;;;;;;4984986;28;46553;-70
2021/12/30 12:21:44;;;;;;;;;3.00;2.00;;;;;;;;4981075;28;45714;-71
2021/12/30 12:24:22;;;;;;;;;4.25;4.00;;;;;;;;4968982;28;45448;-73
2021/12/30 12:26:48;;;;;;;;;3.00;2.00;;;;;;;;4985792;28;45433;-69
2021/12/30 12:29:28;;;;;;;;;2.50;1.75;;;;;;;;4973015;28;47380;-69
2021/12/30 12:31:55;;;;;;;;;1.50;1.25;;;;;;;;4974188;28;45655;-69
2021/12/30 12:34:33;;;;;;;;;1.75;1.50;;;;;;;;4989358;28;45691;-69
2021/12/30 12:36:58;;;;;;;;;4.00;3.00;;;;;;;;4990683;28;45488;-69
2021/12/30 12:39:36;;;;;;;;;4.00;2.25;;;;;;;;4968005;28;48031;-69
2021/12/30 12:42:02;;;;;;;;;3.00;1.00;;;;;;;;4970647;28;45544;-67
2021/12/30 12:44:29;;;;;;;;;3.75;2.00;;;;;;;;4969017;28;45507;-69
2021/12/30 12:46:54;;;;;;;;;2.25;2.25;;;;;;;;4980338;28;45518;-70
2021/12/30 12:49:31;;;;;;;;;3.00;1.25;;;;;;;;4996252;28;46162;-70
2021/12/30 12:51:57;;;;;;;;;2.50;2.00;;;;;;;;5034022;28;45542;-70
2021/12/30 12:54:53;;;;;;;;;2.00;2.00;;;;;;;;5034702;28;45470;-70
2021/12/30 12:57:19;;;;;;;;;4.25;2.75;;;;;;;;5018130;28;45433;-70
2021/12/30 12:59:45;;;;;;;;;4.75;2.00;;;;;;;;5034225;28;45565;-70
2021/12/30 13:02:12;;;;;;;;;6.25;2.75;;;;;;;;5034712;28;45287;-69
2021/12/30 13:04:37;;;;;;;;;4.00;3.00;;;;;;;;5033822;28;45537;-70
2021/12/30 13:07:07;;;;;;;;;3.25;3.00;;;;;;;;5034633;28;45434;-69
2021/12/30 13:09:32;;;;;;;;;4.25;3.50;;;;;;;;5024892;28;48353;-70
2021/12/30 13:12:01;;;;;;;;;3.00;3.00;;;;;;;;5033804;28;45251;-69
2021/12/30 13:14:27;;;;;;;;;6.00;1.75;;;;;;;;5022904;28;45270;-70
2021/12/30 13:16:55;;;;;;;;;5.75;2.75;;;;;;;;5032268;28;45445;-69
2021/12/30 13:19:25;;;;;;;;;6.25;2.00;;;;;;;;5032772;28;46944;-70
2021/12/30 13:21:53;;;;;;;;;2.00;2.00;;;;;;;;5016784;28;45328;-69
2021/12/30 13:24:30;;;;;;;;;2.25;0.75;;;;;;;;5034633;28;45701;-69
2021/12/30 13:26:57;;;;;;;;;5.75;2.00;;;;;;;;5034568;28;45482;-68
2021/12/30 13:29:23;;;;;;;;;2.00;1.25;;;;;;;;5032435;28;45489;-68
2021/12/30 13:31:59;;;;;;;;;3.00;3.00;;;;;;;;5013980;28;45955;-69
2021/12/30 13:34:24;;;;;;;;;2.50;0.75;;;;;;;;5031895;28;45366;-69
2021/12/30 13:36:49;;;;;;;;;3.33;2.00;;;;;;;;5033335;28;45280;-70
2021/12/30 13:39:15;;;;;;;;;6.75;2.75;;;;;;;;5031110;28;45403;-68
2021/12/30 13:41:50;;;;;;;;;3.25;2.00;;;;;;;;5030327;28;45470;-69
2021/12/30 13:44:16;;;;;;;;;2.75;2.50;;;;;;;;5030730;28;45525;-68
2021/12/30 13:46:41;;;;;;;;;1.75;1.75;;;;;;;;5031621;28;45500;-70
2021/12/30 13:49:06;;;;;;;;;4.00;3.00;;;;;;;;5031969;28;46597;-70
2021/12/30 13:51:32;;;;;;;;;1.00;1.00;;;;;;;;5037136;28;45392;-70
2021/12/30 13:53:57;;;;;;;;;4.25;1.50;;;;;;;;5013207;28;45546;-70
2021/12/30 13:56:23;;;;;;;;;3.00;2.00;;;;;;;;5029389;28;45362;-69
2021/12/30 13:58:51;;;;;;;;;3.75;3.75;;;;;;;;5027883;28;45566;-69
2021/12/30 14:01:17;;;;;;;;;1.75;1.00;;;;;;;;5031596;28;45501;-69
2021/12/30 14:03:44;;;;;;;;;2.00;2.00;;;;;;;;5035486;28;45458;-71
2021/12/30 14:06:12;;;;;;;;;4.75;3.00;;;;;;;;5034178;28;45442;-70
2021/12/30 14:08:47;;;;;;;;;5.25;2.00;;;;;;;;5030840;28;46242;-70
2021/12/30 14:11:12;;;;;;;;;4.00;2.00;;;;;;;;5032751;28;45691;-70
2021/12/30 14:13:41;;;;;;;;;4.00;3.00;;;;;;;;5038615;28;45466;-70
2021/12/30 14:16:08;;;;;;;;;2.50;2.50;;;;;;;;5033396;28;45386;-70
2021/12/30 14:18:34;;;;;;;;;4.50;2.50;;;;;;;;5031302;28;45434;-70
2021/12/30 14:21:00;;;;;;;;;4.00;3.75;;;;;;;;5030802;28;45493;-70
2021/12/30 14:23:33;;;;;;;;;3.00;2.00;;;;;;;;5030167;28;45433;-70
2021/12/30 14:26:17;;;;;;;;;3.25;1.25;;;;;;;;5031178;28;45245;-70
2021/12/30 14:28:50;;;;;;;;;2.25;2.00;;;;;;;;5030537;28;46285;-70
2021/12/30 14:31:19;;;;;;;;;1.50;1.50;;;;;;;;5032277;28;46201;-70
2021/12/30 14:33:45;;;;;;;;;3.00;2.50;;;;;;;;5029447;28;45490;-70
2021/12/30 14:36:11;;;;;;;;;4.50;3.00;;;;;;;;5029637;28;45440;-70
2021/12/30 14:38:36;;;;;;;;;7.25;3.50;;;;;;;;5029330;28;45535;-70
2021/12/30 14:41:11;;;;;;;;;2.00;2.00;;;;;;;;5034851;28;45241;-70
2021/12/30 14:44:02;;;;;;;;;3.25;1.00;;;;;;;;5030210;28;45283;-70